Aviation Digital Data Service (ADDS)

Output produced by METARs form (1518 UTC 23 September 2020)
found at http://aviationweather.gov/metar/data/
 
Forecast for: EPCE (CEWICE AIRBASE , PL)
Text: TAF EPCE 231400Z 2315/2324 17006KT CAVOK
Forecast period: 1500 UTC 23 September 2020 to 0000 UTC 24 September 2020
Forecast type: FROM: standard forecast or significant change
Winds: from the S (170 degrees) at 7 MPH (6 knots; 3.1 m/s)
Visibility: 6 or more miles (10+ km)
Ceiling: unknown
Clouds: missing
Weather: NSW  (no significant weather)

Forecast for: EPDA (DARTOWEK NAVAL , PL)
Text: TAF EPDA 231400Z 2315/2324 18006KT CAVOK
Forecast period: 1500 UTC 23 September 2020 to 0000 UTC 24 September 2020
Forecast type: FROM: standard forecast or significant change
Winds: from the S (180 degrees) at 7 MPH (6 knots; 3.1 m/s)
Visibility: 6 or more miles (10+ km)
Ceiling: unknown
Clouds: missing
Weather: NSW  (no significant weather)
Text: TEMPO 2315/2324 VRB03KT
Forecast period: 1500 UTC 23 September 2020 to 0000 UTC 24 September 2020
Forecast type: TEMPORARY: The following changes expected for less than half the time period
Winds: variable direction winds at 3 MPH (3 knots; 1.5 m/s)
Visibility: missing
Ceiling: unknown
Clouds: missing
Weather: no significant weather forecast for this period

Forecast for: EPDE (DEBLIN-IRENA , PL)
Text: TAF EPDE 231400Z 2315/2324 16006KT CAVOK
Forecast period: 1500 UTC 23 September 2020 to 0000 UTC 24 September 2020
Forecast type: FROM: standard forecast or significant change
Winds: from the SSE (160 degrees) at 7 MPH (6 knots; 3.1 m/s)
Visibility: 6 or more miles (10+ km)
Ceiling: unknown
Clouds: missing
Weather: NSW  (no significant weather)

Forecast for: EPKS (KRZESINY ARPT , PL)
Text: TAF EPKS 231400Z 2315/2324 17008KT CAVOK
Forecast period: 1500 UTC 23 September 2020 to 0000 UTC 24 September 2020
Forecast type: FROM: standard forecast or significant change
Winds: from the S (170 degrees) at 9 MPH (8 knots; 4.1 m/s)
Visibility: 6 or more miles (10+ km)
Ceiling: unknown
Clouds: missing
Weather: NSW  (no significant weather)

Forecast for: EPLK (LASK ARPT , PL)
Text: TAF EPLK 231400Z 2315/2324 18008KT CAVOK
Forecast period: 1500 UTC 23 September 2020 to 0000 UTC 24 September 2020
Forecast type: FROM: standard forecast or significant change
Winds: from the S (180 degrees) at 9 MPH (8 knots; 4.1 m/s)
Visibility: 6 or more miles (10+ km)
Ceiling: unknown
Clouds: missing
Weather: NSW  (no significant weather)
Text: PROB30 2320/2324 SCT030
Forecast period: 2000 UTC 23 September 2020 to 0000 UTC 24 September 2020
Forecast type: PROBABLE: 30 percent likelihood of the following during this time
Visibility: missing
Ceiling: at least 12,000 feet AGL
Clouds: scattered clouds at 3000 feet AGL
Weather: no significant weather forecast for this period

Forecast for: EPMB (MALBORK , PL)
Text: TAF EPMB 231400Z 2315/2324 16010KT CAVOK
Forecast period: 1500 UTC 23 September 2020 to 0000 UTC 24 September 2020
Forecast type: FROM: standard forecast or significant change
Winds: from the SSE (160 degrees) at 12 MPH (10 knots; 5.1 m/s)
Visibility: 6 or more miles (10+ km)
Ceiling: unknown
Clouds: missing
Weather: NSW  (no significant weather)

Forecast for: EPMI (TWELTH AIRBASE , PL)
Text: TAF EPMI 231400Z 2315/2324 19006KT CAVOK
Forecast period: 1500 UTC 23 September 2020 to 0000 UTC 24 September 2020
Forecast type: FROM: standard forecast or significant change
Winds: from the S (190 degrees) at 7 MPH (6 knots; 3.1 m/s)
Visibility: 6 or more miles (10+ km)
Ceiling: unknown
Clouds: missing
Weather: NSW  (no significant weather)

Forecast for: EPOK (GDYNIA-BABIE DO , PL)
Text: TAF EPOK 231400Z 2315/2324 17010KT CAVOK
Forecast period: 1500 UTC 23 September 2020 to 0000 UTC 24 September 2020
Forecast type: FROM: standard forecast or significant change
Winds: from the S (170 degrees) at 12 MPH (10 knots; 5.1 m/s)
Visibility: 6 or more miles (10+ km)
Ceiling: unknown
Clouds: missing
Weather: NSW  (no significant weather)

Forecast for: EPPW (POWIDZ AIRPORT , PL)
Text: TAF EPPW 231400Z 2315/2324 17006KT CAVOK
Forecast period: 1500 UTC 23 September 2020 to 0000 UTC 24 September 2020
Forecast type: FROM: standard forecast or significant change
Winds: from the S (170 degrees) at 7 MPH (6 knots; 3.1 m/s)
Visibility: 6 or more miles (10+ km)
Ceiling: unknown
Clouds: missing
Weather: NSW  (no significant weather)

Forecast for: EPRA (RADOM AIRPORT , PL)
Text: TAF EPRA 231400Z 2315/2324 18008KT CAVOK
Forecast period: 1500 UTC 23 September 2020 to 0000 UTC 24 September 2020
Forecast type: FROM: standard forecast or significant change
Winds: from the S (180 degrees) at 9 MPH (8 knots; 4.1 m/s)
Visibility: 6 or more miles (10+ km)
Ceiling: unknown
Clouds: missing
Weather: NSW  (no significant weather)

Forecast for: EPSN (SWIDWIN ARPT , PL)
Text: TAF EPSN 231400Z 2315/2324 18006KT CAVOK
Forecast period: 1500 UTC 23 September 2020 to 0000 UTC 24 September 2020
Forecast type: FROM: standard forecast or significant change
Winds: from the S (180 degrees) at 7 MPH (6 knots; 3.1 m/s)
Visibility: 6 or more miles (10+ km)
Ceiling: unknown
Clouds: missing
Weather: NSW  (no significant weather)
Text: PROB30 2320/2324 5000 MIFG
Forecast period: 2000 UTC 23 September 2020 to 0000 UTC 24 September 2020
Forecast type: PROBABLE: 30 percent likelihood of the following during this time
Visibility: 3 miles (5 km)
Ceiling: unknown
Clouds: missing
Weather: MIFG  (shallow fog)